Flight Track Log - Related Links

Times and Time Zones

All times are in EDT time to prevent confusion due to time zone crossing. See the AWE1940 flight status page for this flight to view local times or setup timezone preferences in your user account.

Time Position Orientation Groundspeed Altitude Reporting Facility
EDT Latitude Longitude Course Direction KTS MPH feet Rate Location/Type
Wed 07:00:04 PM 26.4942 -81.8514 340° North 246 283 3,600  Level Miami Center
Wed 07:01:00 PM 26.8731 -81.7333 North  Level FlightAware Approximate
Wed 07:01:04 PM 26.5489 -81.8978 323° Northwest 269 310 5,800  Level Miami Center
Wed 07:02:00 PM 26.9869 -81.7333 North  Level FlightAware Approximate
Wed 07:02:04 PM 26.6233 -81.9197 345° North 274 315 9,000  Level Miami Center
Wed 07:03:00 PM 27.0957 -81.7650 340° North  Level FlightAware Approximate
Wed 07:03:04 PM 26.7050 -81.9092 North 281 323 11,000  Level Miami Center
Wed 07:04:00 PM 27.2047 -81.8015 343° North  Level FlightAware Approximate
Wed 07:04:03 PM 26.8000 -81.8783 16° North 320 368 12,900  Level Miami Center
Wed 07:05:00 PM 27.3126 -81.8417 340° North  Level FlightAware Approximate
Wed 07:05:04 PM 26.8897 -81.8217 29° Northeast 335 386 15,100  Level Miami Center
Wed 07:06:04 PM 26.9856 -81.7653 28° Northeast 350 403 17,200 2,100 Climbing Miami Center
Wed 07:07:04 PM 27.0961 -81.7700 358° North 369 425 19,300 1,950 Climbing Miami Center
Wed 07:08:04 PM 27.2014 -81.8000 346° North 402 463 21,100 2,067 Climbing Miami Center
Wed 07:09:03 PM 27.3044 -81.8372 342° North 392 451 23,400 1,750 Climbing Miami Center
Wed 07:10:04 PM 27.4064 -81.8486 354° North 397 457 24,600 1,240 Climbing Miami Center
Wed 07:11:04 PM 27.5186 -81.7997 21° North 408 470 25,900 1,450 Climbing Miami Center
Wed 07:12:04 PM 27.6478 -81.7444 21° North 438 504 27,500 1,311 Climbing Miami Center
Wed 07:13:03 PM 27.7661 -81.7003 18° North 443 510 28,500 1,500 Climbing Miami Center
Wed 07:14:04 PM 27.8903 -81.6725 11° North 448 516 30,500 1,250 Climbing Miami Center
Wed 07:15:03 PM 27.9956 -81.6464 12° North 435 501 31,000 250 Climbing Miami Center
Wed 07:16:04 PM 28.1175 -81.6186 11° North 430 495 31,000  Level Miami Center
Wed 07:17:04 PM 28.2394 -81.5908 11° North 435 501 31,000  Level Miami Center
Wed 07:18:04 PM 28.3592 -81.5628 12° North 435 501 31,000  Level Miami Center
Wed 07:19:15 PM 28.5103 -81.5483 North 437 503 31,000  Level Jacksonville Center
Wed 07:20:16 PM 28.6272 -81.5728 350° North 431 496 31,000 -50 Level Jacksonville Center
Wed 07:21:15 PM 28.7464 -81.5950 351° North 431 496 30,900 -50 Descending Jacksonville Center
Wed 07:22:15 PM 28.8636 -81.6219 349° North 426 490 30,900 50 Level Jacksonville Center
Wed 07:23:16 PM 28.9850 -81.6442 351° North 432 497 31,000 50 Climbing Jacksonville Center
Wed 07:24:15 PM 29.1061 -81.6664 351° North 432 497 31,000 350 Level Jacksonville Center
Wed 07:25:16 PM 29.2339 -81.6956 349° North 432 497 31,700 1,000 Climbing Jacksonville Center
Wed 07:26:15 PM 29.3531 -81.7203 350° North 432 497 33,000 857 Climbing Jacksonville Center
Wed 07:27:15 PM 29.4722 -81.7428 351° North 432 497 33,400 850 Climbing Jacksonville Center
Wed 07:28:15 PM 29.5936 -81.7678 350° North 432 497 34,700 800 Climbing Jacksonville Center
Wed 07:29:15 PM 29.7128 -81.7903 351° North 432 497 35,000 150 Climbing Jacksonville Center
Wed 07:30:15 PM 29.8297 -81.8153 349° North 432 497 35,000  Level Jacksonville Center
Wed 07:31:15 PM 29.9489 -81.8378 351° North 432 497 35,000  Level Jacksonville Center
Wed 07:32:15 PM 30.0681 -81.8606 351° North 432 497 35,000 -50 Level Jacksonville Center
Wed 07:33:15 PM 30.1853 -81.8808 351° North 432 497 34,900  Descending Jacksonville Center
Wed 07:34:15 PM 30.3106 -81.8747 North 432 497 35,000 50 Climbing Jacksonville Center
Wed 07:35:15 PM 30.4336 -81.8589 North 432 497 35,000  Level Jacksonville Center
Wed 07:36:15 PM 30.5483 -81.8458 North 458 527 35,000  Level Jacksonville Center
Wed 07:37:15 PM 30.6714 -81.8372 North 453 521 35,000  Level Jacksonville Center
Wed 07:38:15 PM 30.7925 -81.8503 355° North 438 504 35,000  Level Jacksonville Center
Wed 07:39:15 PM 30.9117 -81.8636 355° North 438 504 35,000  Level Jacksonville Center
Wed 07:40:15 PM 31.0328 -81.8767 355° North 438 504 35,000  Level Jacksonville Center
Wed 07:41:15 PM 31.1500 -81.8900 354° North 428 493 35,000 -50 Level Jacksonville Center
Wed 07:42:15 PM 31.2711 -81.9033 355° North 428 493 34,900  Descending Jacksonville Center
Wed 07:43:15 PM 31.3922 -81.9117 357° North 428 493 35,000 100 Climbing Jacksonville Center
Wed 07:44:15 PM 31.5303 -81.9272 355° North 428 493 35,100 50 Climbing Jacksonville Center
Wed 07:45:15 PM 31.6514 -81.9408 355° North 441 507 35,100 -50 Level Jacksonville Center
Wed 07:46:15 PM 31.7747 -81.9542 355° North 441 507 35,000 -50 Descending Jacksonville Center
Wed 07:47:16 PM 31.8958 -81.9675 355° North 441 507 35,000  Level Jacksonville Center
Wed 07:49:41 PM 32.1825 -81.9969 355° North 449 517 35,000  Level Atlanta Center
Wed 07:50:41 PM 32.3039 -82.0092 355° North 443 510 35,000  Level Atlanta Center
Wed 07:51:41 PM 32.4253 -82.0233 354° North 443 510 35,000  Level Atlanta Center
Wed 07:52:41 PM 32.5464 -82.0356 355° North 443 510 35,000 -250 Level Atlanta Center
Wed 07:53:41 PM 32.6697 -82.0500 354° North 443 510 34,500 -550 Descending Atlanta Center
Wed 07:54:41 PM 32.7931 -82.0619 355° North 443 510 33,900 -1,000 Descending Atlanta Center
Wed 07:55:41 PM 32.9144 -82.0767 354° North 443 510 32,500 -1,500 Descending Atlanta Center
Wed 07:56:41 PM 33.0419 -82.0886 356° North 448 516 30,900 -1,600 Descending Atlanta Center
Wed 07:57:41 PM 33.1694 -82.1031 355° North 448 516 29,300 -1,600 Descending Atlanta Center
Wed 07:58:41 PM 33.2950 -82.1178 354° North 448 516 27,700 -1,550 Descending Atlanta Center
Wed 07:59:41 PM 33.4119 -82.1300 355° North 441 507 26,200 -1,500 Descending Atlanta Center
Wed 08:00:41 PM 33.5333 -82.1422 355° North 435 501 24,700 -1,100 Descending Atlanta Center
Wed 08:01:41 PM 33.6483 -82.1547 355° North 423 487 24,000 -350 Descending Atlanta Center
Wed 08:02:41 PM 33.7758 -82.1619 357° North 423 487 24,000 -350 Level Atlanta Center
Wed 08:03:41 PM 33.8906 -82.1594 North 418 481 23,300 -800 Descending Atlanta Center
Wed 08:04:41 PM 34.0053 -82.1569 North 418 481 22,400 -1,000 Descending Atlanta Center
Wed 08:05:41 PM 34.1181 -82.1569 360° North 407 468 21,300 -1,250 Descending Atlanta Center
Wed 08:06:41 PM 34.2286 -82.1519 North 400 460 19,900 -1,450 Descending Atlanta Center
Wed 08:07:41 PM 34.3192 -82.0719 36° Northeast 376 433 18,400 -1,500 Descending Atlanta Center
Wed 08:08:41 PM 34.4008 -81.9694 46° Northeast 389 448 16,900 -1,500 Descending Atlanta Center
Wed 08:09:41 PM 34.4764 -81.8692 48° Northeast 400 460 15,400 -1,550 Descending Atlanta Center
Wed 08:10:41 PM 34.5519 -81.7739 46° Northeast 395 455 13,800 -1,584 Descending Atlanta Center
Wed 08:11:46 PM 34.6333 -81.6708 46° Northeast 382 440 12,100 -900 Descending Atlanta Center
Wed 08:12:41 PM 34.6967 -81.5933 45° Northeast 368 423 12,000 -52 Descending Atlanta Center
Wed 08:13:41 PM 34.7617 -81.5078 47° Northeast 342 394 12,000  Level Atlanta Center
Wed 08:14:41 PM 34.8267 -81.4275 45° Northeast 331 381 12,000  Level Atlanta Center
Wed 08:15:01 PM 34.8469 -81.3964 52° Northeast 337 388 12,000 -800 Level Atlanta Center
Wed 08:15:56 PM 34.9058 -81.3236 45° Northeast 336 387 11,000 -1,320 Descending Atlanta Center
Wed 08:16:41 PM 34.9525 -81.2639 46° Northeast 326 375 9,800 -1,522 Descending Atlanta Center
Wed 08:17:03 PM 34.9767 -81.2275 51° Northeast 328 377 9,300 -800 Descending Atlanta Center
Wed 08:17:41 PM 35.0153 -81.1831 43° Northeast 326 375 9,000 -184 Descending Atlanta Center
Wed 08:18:41 PM 35.0758 -81.1000 48° Northeast 326 375 9,000  Level Atlanta Center
Wed 08:19:11 PM 35.1064 -81.0683 40° Northeast 318 366 9,000  Level Atlanta Center
Wed 08:19:54 PM 35.1689 -81.0661 North 268 308 9,000 -400 Level Atlanta Center
Wed 08:20:41 PM 35.2128 -81.0697 356° North 255 293 8,400 -1,065 Descending Atlanta Center
Wed 08:21:41 PM 35.2800 -81.0772 355° North 245 282 7,100 -1,440 Descending Atlanta Center
Wed 08:21:56 PM 35.3028 -81.0792 356° North 235 270 6,600 -1,342 Descending Atlanta Center
Wed 08:22:57 PM 35.3697 -81.0869 355° North 237 273 5,400 -885 Descending Atlanta Center
Wed 08:23:58 PM 35.4306 -81.0922 356° North 211 243 4,800 -689 Descending Atlanta Center
Wed 08:24:59 PM 35.4847 -81.0878 North 198 228 4,000 -393 Descending Atlanta Center
Wed 08:26:00 PM 35.4872 -81.0267 87° East 203 234 4,000  Level Atlanta Center
Wed 08:27:01 PM 35.4467 -80.9897 143° Southeast 173 199 4,000  Level Atlanta Center
Wed 08:28:03 PM 35.4008 -80.9864 177° South 157 181 4,000 -344 Level Atlanta Center
Wed 08:29:03 PM 35.3589 -80.9828 176° South 160 184 3,300 -744 Descending Atlanta Center
Wed 08:30:04 PM 35.3128 -80.9769 174° South 153 176 2,500 -738 Descending Atlanta Center
Wed 08:31:05 PM 35.2775 -80.9756 178° South 128 147 1,800 -689 Descending Atlanta Center

Login

Don't have an account? Register now (free) for customized features, flight alerts, and more!